sensor_id;sensor_type;location;lat;lon;timestamp;pressure;altitude;pressure_sealevel;temperature;humidity
24892;BME280;12954;50.688;10.908;2023-02-01T10:45:26;95487.53;;;2.60;61.39
24892;BME280;12954;50.688;10.908;2023-02-01T10:47:58;95488.75;;;2.81;60.51
24892;BME280;12954;50.688;10.908;2023-02-01T10:50:35;95454.28;;;2.63;60.14
24892;BME280;12954;50.688;10.908;2023-02-01T10:53:12;95462.13;;;2.69;61.03
24892;BME280;12954;50.688;10.908;2023-02-01T10:55:49;95447.78;;;2.70;59.50
24892;BME280;12954;50.688;10.908;2023-02-01T10:58:25;95446.41;;;2.68;59.91
24892;BME280;12954;50.688;10.908;2023-02-01T11:00:57;95462.81;;;2.88;59.73
24892;BME280;12954;50.688;10.908;2023-02-01T11:03:36;95458.22;;;2.72;60.53
24892;BME280;12954;50.688;10.908;2023-02-01T11:06:14;95466.78;;;2.74;61.07
24892;BME280;12954;50.688;10.908;2023-02-01T11:08:49;95445.47;;;2.74;60.99
24892;BME280;12954;50.688;10.908;2023-02-01T11:11:19;95457.50;;;2.88;59.52
24892;BME280;12954;50.688;10.908;2023-02-01T11:13:53;95452.66;;;3.13;58.33
24892;BME280;12954;50.688;10.908;2023-02-01T11:16:30;95449.75;;;2.87;59.07
24892;BME280;12954;50.688;10.908;2023-02-01T11:18:59;95453.91;;;2.83;58.97
24892;BME280;12954;50.688;10.908;2023-02-01T11:21:28;95428.72;;;2.50;59.11
24892;BME280;12954;50.688;10.908;2023-02-01T11:24:01;95443.97;;;2.55;59.46
24892;BME280;12954;50.688;10.908;2023-02-01T11:26:30;95463.09;;;2.75;59.11
24892;BME280;12954;50.688;10.908;2023-02-01T11:29:03;95467.91;;;3.01;58.20
24892;BME280;12954;50.688;10.908;2023-02-01T11:31:34;95454.63;;;2.90;58.44
24892;BME280;12954;50.688;10.908;2023-02-01T11:34:07;95461.66;;;2.84;58.72
24892;BME280;12954;50.688;10.908;2023-02-01T11:36:38;95453.09;;;2.82;58.91
24892;BME280;12954;50.688;10.908;2023-02-01T11:39:16;95452.28;;;2.82;59.04
24892;BME280;12954;50.688;10.908;2023-02-01T11:41:57;95452.97;;;2.89;58.60
24892;BME280;12954;50.688;10.908;2023-02-01T11:44:32;95449.06;;;2.68;59.63
24892;BME280;12954;50.688;10.908;2023-02-01T11:47:23;95424.06;;;2.69;59.20
24892;BME280;12954;50.688;10.908;2023-02-01T11:49:53;95451.69;;;2.91;59.27
24892;BME280;12954;50.688;10.908;2023-02-01T11:52:37;95390.59;;;2.73;58.02
24892;BME280;12954;50.688;10.908;2023-02-01T11:55:21;95400.66;;;2.71;58.83
24892;BME280;12954;50.688;10.908;2023-02-01T11:57:55;95440.94;;;2.86;58.94
24892;BME280;12954;50.688;10.908;2023-02-01T12:00:51;95437.66;;;3.07;57.60
24892;BME280;12954;50.688;10.908;2023-02-01T12:04:00;95433.41;;;2.83;58.92
24892;BME280;12954;50.688;10.908;2023-02-01T12:06:41;95433.03;;;2.91;58.50
24892;BME280;12954;50.688;10.908;2023-02-01T12:09:34;95431.84;;;2.99;58.15
24892;BME280;12954;50.688;10.908;2023-02-01T12:12:13;95427.63;;;2.86;58.36
24892;BME280;12954;50.688;10.908;2023-02-01T12:14:54;95437.47;;;2.86;58.56
24892;BME280;12954;50.688;10.908;2023-02-01T12:17:42;95431.84;;;2.99;58.11
24892;BME280;12954;50.688;10.908;2023-02-01T12:20:27;95389.78;;;2.72;58.10
24892;BME280;12954;50.688;10.908;2023-02-01T12:23:10;95380.53;;;2.75;57.86
24892;BME280;12954;50.688;10.908;2023-02-01T12:26:01;95363.47;;;2.76;57.93
24892;BME280;12954;50.688;10.908;2023-02-01T12:28:48;95171.81;;;1.33;58.25
24892;BME280;12954;50.688;10.908;2023-02-01T12:31:39;95412.03;;;3.06;57.76
24892;BME280;12954;50.688;10.908;2023-02-01T12:34:33;95423.44;;;2.78;58.51
24892;BME280;12954;50.688;10.908;2023-02-01T12:37:13;95418.72;;;2.81;58.27
24892;BME280;12954;50.688;10.908;2023-02-01T12:39:50;95424.03;;;2.92;58.29
24892;BME280;12954;50.688;10.908;2023-02-01T12:42:24;95373.25;;;2.59;58.01
24892;BME280;12954;50.688;10.908;2023-02-01T12:44:56;95434.88;;;3.02;57.87
24892;BME280;12954;50.688;10.908;2023-02-01T12:47:32;95437.13;;;2.82;58.34
24892;BME280;12954;50.688;10.908;2023-02-01T12:50:05;95438.16;;;2.81;58.48
24892;BME280;12954;50.688;10.908;2023-02-01T12:52:45;95440.16;;;2.74;58.81
24892;BME280;12954;50.688;10.908;2023-02-01T12:55:19;95358.16;;;2.25;58.95
24892;BME280;12954;50.688;10.908;2023-02-01T12:57:53;95440.16;;;2.74;58.64
24892;BME280;12954;50.688;10.908;2023-02-01T13:00:28;95431.44;;;2.78;58.17
24892;BME280;12954;50.688;10.908;2023-02-01T13:03:03;95397.78;;;2.61;58.75
24892;BME280;12954;50.688;10.908;2023-02-01T13:05:44;95390.25;;;2.58;58.80
24892;BME280;12954;50.688;10.908;2023-02-01T13:08:21;95423.00;;;2.70;59.03
24892;BME280;12954;50.688;10.908;2023-02-01T13:10:56;95409.44;;;2.83;58.68
24892;BME280;12954;50.688;10.908;2023-02-01T13:13:32;95403.16;;;3.01;57.92
24892;BME280;12954;50.688;10.908;2023-02-01T13:16:15;95366.22;;;2.81;57.50
24892;BME280;12954;50.688;10.908;2023-02-01T13:18:47;95379.00;;;2.79;57.94
24892;BME280;12954;50.688;10.908;2023-02-01T13:21:21;95386.44;;;3.05;57.71
24892;BME280;12954;50.688;10.908;2023-02-01T13:23:53;95343.22;;;2.75;57.37
24892;BME280;12954;50.688;10.908;2023-02-01T13:26:22;95396.06;;;3.06;57.56
24892;BME280;12954;50.688;10.908;2023-02-01T13:28:53;95228.94;;;2.05;57.12
24892;BME280;12954;50.688;10.908;2023-02-01T13:31:33;95392.22;;;3.02;57.64
24892;BME280;12954;50.688;10.908;2023-02-01T13:34:40;95377.50;;;3.11;57.56
24892;BME280;12954;50.688;10.908;2023-02-01T13:37:23;95344.47;;;3.12;56.85
24892;BME280;12954;50.688;10.908;2023-02-01T13:40:10;95372.34;;;3.21;56.91
24892;BME280;12954;50.688;10.908;2023-02-01T13:42:49;95372.94;;;2.95;57.61
24892;BME280;12954;50.688;10.908;2023-02-01T13:45:21;95367.44;;;3.02;57.73
24892;BME280;12954;50.688;10.908;2023-02-01T13:47:52;95386.84;;;3.14;56.95
24892;BME280;12954;50.688;10.908;2023-02-01T13:50:23;95361.31;;;3.01;57.25
24892;BME280;12954;50.688;10.908;2023-02-01T13:52:55;95310.13;;;2.71;57.24
24892;BME280;12954;50.688;10.908;2023-02-01T13:55:30;95351.31;;;3.08;57.34
24892;BME280;12954;50.688;10.908;2023-02-01T13:58:03;95343.31;;;3.08;56.99
24892;BME280;12954;50.688;10.908;2023-02-01T14:00:34;95351.63;;;2.95;57.26
24892;BME280;12954;50.688;10.908;2023-02-01T14:03:21;95341.84;;;3.01;56.54
24892;BME280;12954;50.688;10.908;2023-02-01T14:06:01;95357.59;;;3.02;55.91
24892;BME280;12954;50.688;10.908;2023-02-01T14:11:44;95310.59;;;2.68;56.78
24892;BME280;12954;50.688;10.908;2023-02-01T14:14:44;95322.66;;;2.87;56.14
24892;BME280;12954;50.688;10.908;2023-02-01T14:17:36;95318.06;;;2.83;56.38
24892;BME280;12954;50.688;10.908;2023-02-01T14:23:15;95304.03;;;2.59;56.91
24892;BME280;12954;50.688;10.908;2023-02-01T14:25:45;95316.22;;;2.43;57.25
24892;BME280;12954;50.688;10.908;2023-02-01T14:28:25;95306.34;;;2.55;57.09
24892;BME280;12954;50.688;10.908;2023-02-01T14:30:57;95317.06;;;2.72;56.39
24892;BME280;12954;50.688;10.908;2023-02-01T14:33:27;95308.75;;;2.68;56.04
24892;BME280;12954;50.688;10.908;2023-02-01T14:36:02;95311.28;;;2.75;56.31
24892;BME280;12954;50.688;10.908;2023-02-01T14:38:31;95286.03;;;2.78;55.88
24892;BME280;12954;50.688;10.908;2023-02-01T14:41:28;95265.81;;;2.65;55.38
24892;BME280;12954;50.688;10.908;2023-02-01T14:44:24;95285.13;;;2.72;56.00
24892;BME280;12954;50.688;10.908;2023-02-01T14:50:25;95276.97;;;2.10;57.44
24892;BME280;12954;50.688;10.908;2023-02-01T14:53:06;95303.75;;;2.32;57.71
24892;BME280;12954;50.688;10.908;2023-02-01T14:55:41;95275.38;;;2.38;57.76
24892;BME280;12954;50.688;10.908;2023-02-01T14:58:18;95265.09;;;2.30;57.11
24892;BME280;12954;50.688;10.908;2023-02-01T15:00:51;95297.34;;;2.45;57.59
24892;BME280;12954;50.688;10.908;2023-02-01T15:06:26;95292.22;;;2.55;56.91
24892;BME280;12954;50.688;10.908;2023-02-01T15:08:59;95284.28;;;2.43;57.56
24892;BME280;12954;50.688;10.908;2023-02-01T15:11:30;95280.69;;;2.38;57.48
24892;BME280;12954;50.688;10.908;2023-02-01T15:13:58;95305.25;;;2.40;58.00
24892;BME280;12954;50.688;10.908;2023-02-01T15:16:28;95310.59;;;2.68;57.18
24892;BME280;12954;50.688;10.908;2023-02-01T15:19:11;95298.69;;;2.59;58.03
24892;BME280;12954;50.688;10.908;2023-02-01T15:21:45;95268.81;;;2.29;58.83
24892;BME280;12954;50.688;10.908;2023-02-01T15:24:20;95295.66;;;2.27;59.73
24892;BME280;12954;50.688;10.908;2023-02-01T15:26:49;95286.53;;;2.11;59.58
24892;BME280;12954;50.688;10.908;2023-02-01T15:29:19;95295.47;;;2.57;58.95
24892;BME280;12954;50.688;10.908;2023-02-01T15:31:50;95278.41;;;2.30;59.15
24892;BME280;12954;50.688;10.908;2023-02-01T15:34:21;95286.72;;;2.45;59.10
24892;BME280;12954;50.688;10.908;2023-02-01T15:36:50;95242.91;;;2.24;59.03
24892;BME280;12954;50.688;10.908;2023-02-01T15:39:29;95268.16;;;2.22;59.68
24892;BME280;12954;50.688;10.908;2023-02-01T15:42:01;95283.13;;;2.39;59.35
24892;BME280;12954;50.688;10.908;2023-02-01T15:44:39;95268.47;;;2.37;59.36
24892;BME280;12954;50.688;10.908;2023-02-01T15:47:18;95219.38;;;2.04;59.85
24892;BME280;12954;50.688;10.908;2023-02-01T15:49:51;95276.44;;;2.37;59.57
24892;BME280;12954;50.688;10.908;2023-02-01T15:52:27;95234.69;;;2.26;58.76
24892;BME280;12954;50.688;10.908;2023-02-01T15:55:01;95279.25;;;2.58;58.90
24892;BME280;12954;50.688;10.908;2023-02-01T15:57:32;95288.72;;;2.66;58.54
24892;BME280;12954;50.688;10.908;2023-02-01T16:00:04;95294.53;;;2.63;58.67
24892;BME280;12954;50.688;10.908;2023-02-01T16:02:40;95279.88;;;2.37;59.67
24892;BME280;12954;50.688;10.908;2023-02-01T16:05:28;95290.44;;;2.32;59.01
24892;BME280;12954;50.688;10.908;2023-02-01T16:08:01;95301.63;;;2.57;58.70
24892;BME280;12954;50.688;10.908;2023-02-01T16:10:31;95284.00;;;2.28;59.64
24892;BME280;12954;50.688;10.908;2023-02-01T16:13:06;95302.69;;;2.45;59.63
24892;BME280;12954;50.688;10.908;2023-02-01T16:15:34;95309.69;;;2.62;58.99
24892;BME280;12954;50.688;10.908;2023-02-01T16:18:07;95309.81;;;2.56;59.25
24892;BME280;12954;50.688;10.908;2023-02-01T16:20:37;95301.53;;;2.41;59.81
24892;BME280;12954;50.688;10.908;2023-02-01T16:23:07;95301.34;;;2.31;60.25
24892;BME280;12954;50.688;10.908;2023-02-01T16:25:36;95326.47;;;2.63;59.28
24892;BME280;12954;50.688;10.908;2023-02-01T16:28:05;95292.09;;;2.22;60.50
24892;BME280;12954;50.688;10.908;2023-02-01T16:30:35;95331.63;;;2.30;60.94
24892;BME280;12954;50.688;10.908;2023-02-01T16:33:08;95325.06;;;2.09;61.75
24892;BME280;12954;50.688;10.908;2023-02-01T16:35:39;95331.88;;;2.05;62.16
24892;BME280;12954;50.688;10.908;2023-02-01T16:38:11;95342.28;;;2.30;61.59
24892;BME280;12954;50.688;10.908;2023-02-01T16:40:41;95349.56;;;2.22;61.69
24892;BME280;12954;50.688;10.908;2023-02-01T16:43:12;95352.94;;;2.30;61.51
24892;BME280;12954;50.688;10.908;2023-02-01T16:45:42;95348.44;;;2.07;62.42
24892;BME280;12954;50.688;10.908;2023-02-01T16:48:20;95346.34;;;2.20;62.09
24892;BME280;12954;50.688;10.908;2023-02-01T16:50:51;95340.22;;;2.20;62.37
24892;BME280;12954;50.688;10.908;2023-02-01T16:53:21;95310.75;;;2.10;62.50
24892;BME280;12954;50.688;10.908;2023-02-01T16:55:50;95333.75;;;2.28;62.53
24892;BME280;12954;50.688;10.908;2023-02-01T16:58:19;95299.75;;;2.06;62.10
24892;BME280;12954;50.688;10.908;2023-02-01T17:00:48;95305.28;;;2.05;62.38
24892;BME280;12954;50.688;10.908;2023-02-01T17:03:19;95360.56;;;2.38;62.21
24892;BME280;12954;50.688;10.908;2023-02-01T17:05:50;95348.44;;;2.30;62.49
24892;BME280;12954;50.688;10.908;2023-02-01T17:08:26;95342.72;;;2.50;61.74
24892;BME280;12954;50.688;10.908;2023-02-01T17:10:59;95344.91;;;2.53;61.30
24892;BME280;12954;50.688;10.908;2023-02-01T17:13:27;95352.00;;;2.36;61.90
24892;BME280;12954;50.688;10.908;2023-02-01T17:15:58;95350.84;;;2.20;62.31
24892;BME280;12954;50.688;10.908;2023-02-01T17:18:29;95309.25;;;1.91;63.08
24892;BME280;12954;50.688;10.908;2023-02-01T17:21:00;95330.59;;;2.31;62.02
24892;BME280;12954;50.688;10.908;2023-02-01T17:23:30;95336.97;;;2.18;62.75
24892;BME280;12954;50.688;10.908;2023-02-01T17:25:59;95346.59;;;2.07;63.57
24892;BME280;12954;50.688;10.908;2023-02-01T17:28:29;95293.72;;;1.64;64.01
24892;BME280;12954;50.688;10.908;2023-02-01T17:30:57;95353.09;;;2.63;63.33
24892;BME280;12954;50.688;10.908;2023-02-01T17:33:30;95334.06;;;2.43;63.65
24892;BME280;12954;50.688;10.908;2023-02-01T17:36:03;95331.88;;;2.40;64.17
24892;BME280;12954;50.688;10.908;2023-02-01T17:38:33;95302.28;;;2.25;63.54
24892;BME280;12954;50.688;10.908;2023-02-01T17:41:01;95316.09;;;2.50;61.98
24892;BME280;12954;50.688;10.908;2023-02-01T17:43:30;95353.34;;;2.50;61.38
24892;BME280;12954;50.688;10.908;2023-02-01T17:46:01;95366.09;;;2.48;60.99
24892;BME280;12954;50.688;10.908;2023-02-01T17:48:32;95350.16;;;2.36;61.39
24892;BME280;12954;50.688;10.908;2023-02-01T17:51:01;95356.47;;;2.58;60.51
24892;BME280;12954;50.688;10.908;2023-02-01T17:53:30;95337.13;;;2.63;60.33
24892;BME280;12954;50.688;10.908;2023-02-01T17:56:01;95346.31;;;2.32;60.22
24892;BME280;12954;50.688;10.908;2023-02-01T17:58:30;95382.53;;;2.45;59.92
24892;BME280;12954;50.688;10.908;2023-02-01T18:01:01;95385.66;;;2.53;59.48
24892;BME280;12954;50.688;10.908;2023-02-01T18:03:32;95362.28;;;2.32;59.41
24892;BME280;12954;50.688;10.908;2023-02-01T18:06:03;95388.06;;;2.55;59.44
24892;BME280;12954;50.688;10.908;2023-02-01T18:08:32;95383.13;;;2.35;60.01
24892;BME280;12954;50.688;10.908;2023-02-01T18:11:01;95389.97;;;2.43;60.12
24892;BME280;12954;50.688;10.908;2023-02-01T18:13:31;95369.94;;;2.29;60.63
24892;BME280;12954;50.688;10.908;2023-02-01T18:16:00;95367.16;;;2.35;60.41
24892;BME280;12954;50.688;10.908;2023-02-01T18:18:32;95387.31;;;2.43;60.45
24892;BME280;12954;50.688;10.908;2023-02-01T18:21:04;95363.81;;;2.40;60.31
24892;BME280;12954;50.688;10.908;2023-02-01T18:23:33;95374.00;;;2.43;60.22
24892;BME280;12954;50.688;10.908;2023-02-01T18:26:02;95381.38;;;2.41;60.10
24892;BME280;12954;50.688;10.908;2023-02-01T18:28:32;95374.72;;;2.66;59.14
24892;BME280;12954;50.688;10.908;2023-02-01T18:31:01;95359.31;;;2.80;59.30
24892;BME280;12954;50.688;10.908;2023-02-01T18:33:33;95358.13;;;2.48;60.17
24892;BME280;12954;50.688;10.908;2023-02-01T18:36:02;95368.53;;;2.49;60.16
24892;BME280;12954;50.688;10.908;2023-02-01T18:38:31;95354.88;;;2.34;60.49
24892;BME280;12954;50.688;10.908;2023-02-01T18:41:00;95355.84;;;2.28;60.95
24892;BME280;12954;50.688;10.908;2023-02-01T18:43:30;95268.19;;;1.75;61.03
24892;BME280;12954;50.688;10.908;2023-02-01T18:45:59;95368.09;;;2.29;61.06
24892;BME280;12954;50.688;10.908;2023-02-01T18:48:28;95370.72;;;2.41;60.96
24892;BME280;12954;50.688;10.908;2023-02-01T18:50:58;95361.44;;;2.55;60.68
24892;BME280;12954;50.688;10.908;2023-02-01T18:53:27;95362.88;;;2.46;60.98
24892;BME280;12954;50.688;10.908;2023-02-01T18:55:58;95363.34;;;2.83;59.56
24892;BME280;12954;50.688;10.908;2023-02-01T18:58:26;95364.47;;;2.47;60.78
24892;BME280;12954;50.688;10.908;2023-02-01T19:00:57;95343.34;;;2.17;61.32
24892;BME280;12954;50.688;10.908;2023-02-01T19:03:26;95358.50;;;2.40;61.28
24892;BME280;12954;50.688;10.908;2023-02-01T19:05:55;95368.66;;;2.43;61.25
24892;BME280;12954;50.688;10.908;2023-02-01T19:08:25;95355.22;;;2.49;60.33
24892;BME280;12954;50.688;10.908;2023-02-01T19:10:54;95374.81;;;2.83;59.33
24892;BME280;12954;50.688;10.908;2023-02-01T19:13:22;95377.38;;;2.66;59.98
24892;BME280;12954;50.688;10.908;2023-02-01T19:15:56;95370.16;;;2.39;60.78
24892;BME280;12954;50.688;10.908;2023-02-01T19:18:26;95394.31;;;2.49;60.88
24892;BME280;12954;50.688;10.908;2023-02-01T19:21:01;95372.03;;;2.03;61.76
24892;BME280;12954;50.688;10.908;2023-02-01T19:23:32;95405.91;;;2.19;62.43
24892;BME280;12954;50.688;10.908;2023-02-01T19:26:00;95413.56;;;2.16;62.71
24892;BME280;12954;50.688;10.908;2023-02-01T19:28:29;95420.84;;;1.97;63.81
24892;BME280;12954;50.688;10.908;2023-02-01T19:31:07;95436.69;;;1.92;63.83
24892;BME280;12954;50.688;10.908;2023-02-01T19:33:37;95449.69;;;1.82;64.36
24892;BME280;12954;50.688;10.908;2023-02-01T19:36:08;95420.84;;;1.56;64.69
24892;BME280;12954;50.688;10.908;2023-02-01T19:38:39;95453.09;;;1.89;64.34
24892;BME280;12954;50.688;10.908;2023-02-01T19:41:07;95446.59;;;1.85;64.74
24892;BME280;12954;50.688;10.908;2023-02-01T19:43:36;95442.53;;;1.83;64.98
24892;BME280;12954;50.688;10.908;2023-02-01T19:46:06;95408.59;;;1.55;64.79
24892;BME280;12954;50.688;10.908;2023-02-01T19:48:35;95428.50;;;1.64;65.26
24892;BME280;12954;50.688;10.908;2023-02-01T19:51:04;95422.88;;;1.72;65.22
24892;BME280;12954;50.688;10.908;2023-02-01T19:53:34;95450.91;;;1.86;64.93
24892;BME280;12954;50.688;10.908;2023-02-01T19:56:07;95441.72;;;1.82;65.29
24892;BME280;12954;50.688;10.908;2023-02-01T19:58:36;95426.97;;;1.86;64.92
24892;BME280;12954;50.688;10.908;2023-02-01T20:01:06;95448.97;;;1.63;65.51
24892;BME280;12954;50.688;10.908;2023-02-01T20:03:36;95441.22;;;1.62;65.65
24892;BME280;12954;50.688;10.908;2023-02-01T20:06:06;95429.84;;;1.55;65.90
24892;BME280;12954;50.688;10.908;2023-02-01T20:08:37;95439.06;;;1.82;65.21
24892;BME280;12954;50.688;10.908;2023-02-01T20:11:09;95415.13;;;1.82;64.67
24892;BME280;12954;50.688;10.908;2023-02-01T20:13:39;95400.94;;;1.47;65.05
24892;BME280;12954;50.688;10.908;2023-02-01T20:16:08;95442.63;;;1.76;64.96
24892;BME280;12954;50.688;10.908;2023-02-01T20:18:37;95435.75;;;1.87;64.50
24892;BME280;12954;50.688;10.908;2023-02-01T20:21:05;95441.22;;;2.03;63.75
24892;BME280;12954;50.688;10.908;2023-02-01T20:23:34;95460.34;;;1.82;64.44
24892;BME280;12954;50.688;10.908;2023-02-01T20:26:06;95450.09;;;1.97;63.69
24892;BME280;12954;50.688;10.908;2023-02-01T20:28:37;95437.66;;;1.80;64.21
24892;BME280;12954;50.688;10.908;2023-02-01T20:31:07;95440.41;;;1.73;64.10
24892;BME280;12954;50.688;10.908;2023-02-01T20:33:38;95431.28;;;1.69;64.32
24892;BME280;12954;50.688;10.908;2023-02-01T20:36:07;95419.16;;;1.73;63.78
24892;BME280;12954;50.688;10.908;2023-02-01T20:38:36;95432.19;;;1.93;63.01
24892;BME280;12954;50.688;10.908;2023-02-01T20:41:07;95401.66;;;1.54;62.60
24892;BME280;12954;50.688;10.908;2023-02-01T20:43:38;95443.06;;;1.73;62.63
24892;BME280;12954;50.688;10.908;2023-02-01T20:46:07;95449.63;;;1.59;63.14
24892;BME280;12954;50.688;10.908;2023-02-01T20:48:36;95456.78;;;1.88;61.72
24892;BME280;12954;50.688;10.908;2023-02-01T20:51:05;95428.69;;;1.51;62.15
24892;BME280;12954;50.688;10.908;2023-02-01T20:53:34;95407.16;;;1.41;62.05
24892;BME280;12954;50.688;10.908;2023-02-01T20:56:04;95399.25;;;1.23;62.57
24892;BME280;12954;50.688;10.908;2023-02-01T20:58:33;95447.09;;;1.64;62.37
24892;BME280;12954;50.688;10.908;2023-02-01T21:01:05;95356.50;;;1.13;62.40
24892;BME280;12954;50.688;10.908;2023-02-01T21:03:34;95445.44;;;1.40;63.41
24892;BME280;12954;50.688;10.908;2023-02-01T21:06:03;95425.25;;;1.21;63.63
24892;BME280;12954;50.688;10.908;2023-02-01T21:08:32;95407.81;;;1.25;63.65
24892;BME280;12954;50.688;10.908;2023-02-01T21:11:03;95444.59;;;1.69;63.20
24892;BME280;12954;50.688;10.908;2023-02-01T21:13:35;95433.47;;;1.60;63.51
24892;BME280;12954;50.688;10.908;2023-02-01T21:16:10;95454.38;;;1.57;63.87
24892;BME280;12954;50.688;10.908;2023-02-01T21:18:39;95414.41;;;1.22;64.59
24892;BME280;12954;50.688;10.908;2023-02-01T21:21:09;95435.28;;;1.48;64.41
24892;BME280;12954;50.688;10.908;2023-02-01T21:23:38;95460.06;;;1.60;64.62
24892;BME280;12954;50.688;10.908;2023-02-01T21:26:11;95455.06;;;1.64;64.61
24892;BME280;12954;50.688;10.908;2023-02-01T21:28:40;95448.00;;;1.58;64.80
24892;BME280;12954;50.688;10.908;2023-02-01T21:31:10;95456.72;;;1.65;64.73
24892;BME280;12954;50.688;10.908;2023-02-01T21:33:39;95312.22;;;0.65;64.37
24892;BME280;12954;50.688;10.908;2023-02-01T21:36:08;95450.81;;;1.63;64.65
24892;BME280;12954;50.688;10.908;2023-02-01T21:38:45;95460.97;;;1.54;64.91
24892;BME280;12954;50.688;10.908;2023-02-01T21:41:16;95467.88;;;1.55;64.77
24892;BME280;12954;50.688;10.908;2023-02-01T21:44:03;95451.66;;;1.75;63.89
24892;BME280;12954;50.688;10.908;2023-02-01T21:46:33;95451.03;;;1.61;64.06
24892;BME280;12954;50.688;10.908;2023-02-01T21:49:01;95465.00;;;1.57;64.03
24892;BME280;12954;50.688;10.908;2023-02-01T21:51:33;95466.03;;;1.56;64.23
24892;BME280;12954;50.688;10.908;2023-02-01T21:54:03;95476.34;;;1.64;63.70
24892;BME280;12954;50.688;10.908;2023-02-01T21:56:32;95404.91;;;1.26;62.70
24892;BME280;12954;50.688;10.908;2023-02-01T21:59:01;95488.78;;;1.52;63.38
24892;BME280;12954;50.688;10.908;2023-02-01T22:01:29;95485.81;;;1.60;63.25
24892;BME280;12954;50.688;10.908;2023-02-01T22:03:59;95484.47;;;1.69;62.54
24892;BME280;12954;50.688;10.908;2023-02-01T22:06:29;95473.56;;;1.59;62.96
24892;BME280;12954;50.688;10.908;2023-02-01T22:08:58;95496.13;;;1.68;62.94
24892;BME280;12954;50.688;10.908;2023-02-01T22:11:26;95487.78;;;1.64;62.72
24892;BME280;12954;50.688;10.908;2023-02-01T22:13:55;95494.97;;;1.64;62.64
24892;BME280;12954;50.688;10.908;2023-02-01T22:16:23;95445.59;;;1.27;62.84
24892;BME280;12954;50.688;10.908;2023-02-01T22:18:53;95482.06;;;1.49;62.63
24892;BME280;12954;50.688;10.908;2023-02-01T22:21:23;95504.19;;;1.61;62.61
24892;BME280;12954;50.688;10.908;2023-02-01T22:23:54;95504.00;;;1.63;62.20
24892;BME280;12954;50.688;10.908;2023-02-01T22:26:25;95496.00;;;1.63;62.10
24892;BME280;12954;50.688;10.908;2023-02-01T22:28:54;95499.19;;;1.53;62.33
24892;BME280;12954;50.688;10.908;2023-02-01T22:31:22;95494.47;;;1.55;62.25
24892;BME280;12954;50.688;10.908;2023-02-01T22:33:51;95500.16;;;1.59;62.17
24892;BME280;12954;50.688;10.908;2023-02-01T22:36:19;95433.94;;;1.28;61.35
24892;BME280;12954;50.688;10.908;2023-02-01T22:38:49;95507.22;;;1.65;61.55
24892;BME280;12954;50.688;10.908;2023-02-01T22:41:18;95515.66;;;1.62;61.45
24892;BME280;12954;50.688;10.908;2023-02-01T22:43:47;95514.25;;;1.59;61.68
24892;BME280;12954;50.688;10.908;2023-02-01T22:46:17;95471.41;;;1.38;61.67
24892;BME280;12954;50.688;10.908;2023-02-01T22:48:46;95421.28;;;0.93;61.95
24892;BME280;12954;50.688;10.908;2023-02-01T22:51:16;95505.22;;;1.49;61.91
24892;BME280;12954;50.688;10.908;2023-02-01T22:53:46;95509.63;;;1.66;61.55
24892;BME280;12954;50.688;10.908;2023-02-01T22:56:16;95502.16;;;1.63;61.39
24892;BME280;12954;50.688;10.908;2023-02-01T22:58:44;95499.06;;;1.78;61.05
24892;BME280;12954;50.688;10.908;2023-02-01T23:01:13;95503.22;;;1.74;60.72
24892;BME280;12954;50.688;10.908;2023-02-01T23:03:42;95522.25;;;1.89;60.03
24892;BME280;12954;50.688;10.908;2023-02-01T23:06:10;95494.97;;;1.64;60.79
24892;BME280;12954;50.688;10.908;2023-02-01T23:08:39;95492.94;;;1.48;60.91
24892;BME280;12954;50.688;10.908;2023-02-01T23:11:09;95519.38;;;1.73;60.18
24892;BME280;12954;50.688;10.908;2023-02-01T23:13:39;95519.69;;;1.64;60.50
24892;BME280;12954;50.688;10.908;2023-02-01T23:16:09;95507.25;;;1.77;59.46
24892;BME280;12954;50.688;10.908;2023-02-01T23:18:38;95525.25;;;1.63;60.24
24892;BME280;12954;50.688;10.908;2023-02-01T23:21:09;95522.44;;;1.58;60.69
24892;BME280;12954;50.688;10.908;2023-02-01T23:23:38;95529.75;;;1.62;60.64
24892;BME280;12954;50.688;10.908;2023-02-01T23:26:06;95545.69;;;1.81;59.79
24892;BME280;12954;50.688;10.908;2023-02-01T23:28:34;95521.69;;;1.69;60.04
24892;BME280;12954;50.688;10.908;2023-02-01T23:31:09;95515.13;;;1.72;60.18
24892;BME280;12954;50.688;10.908;2023-02-01T23:33:38;95504.44;;;1.60;60.19
24892;BME280;12954;50.688;10.908;2023-02-01T23:36:11;95514.88;;;1.73;59.91
24892;BME280;12954;50.688;10.908;2023-02-01T23:38:41;95521.75;;;1.81;59.61
24892;BME280;12954;50.688;10.908;2023-02-01T23:41:11;95526.53;;;1.60;60.08
24892;BME280;12954;50.688;10.908;2023-02-01T23:43:40;95520.22;;;1.55;60.51
24892;BME280;12954;50.688;10.908;2023-02-01T23:46:31;95512.22;;;1.43;60.09
24892;BME280;12954;50.688;10.908;2023-02-01T23:49:00;95529.84;;;1.56;60.39
24892;BME280;12954;50.688;10.908;2023-02-01T23:51:30;95518.72;;;1.47;60.76
24892;BME280;12954;50.688;10.908;2023-02-01T23:53:59;95452.25;;;1.18;60.35
24892;BME280;12954;50.688;10.908;2023-02-01T23:56:31;95536.34;;;1.60;60.08
24892;BME280;12954;50.688;10.908;2023-02-01T23:59:00;95522.44;;;1.58;60.26
